LNI229 WIDD-WIEE
Flight info
| Callsign | LNI229 |
|---|---|
| Flight time | 0h 56m |
| Altitude | 36000 |
| Route | TUSNU DCT UGIGI W22 OSNIS |
| Aircraft | B738/M-SDE2E3FGHIRWXY/LB1 |
Departure
| Time | 2026-05-07 12:00 |
|---|---|
| Airport | Hang Nadim International Airport (WIDD) |
Arrival
| Time | 2026-05-07 12:57 |
|---|---|
| Airport | Minangkabau International Airport (WIEE) |
| Time | Latitude | Longitude | Altitude | Speed | Heading |
|---|---|---|---|---|---|
| 2026-05-07 11:37 | 1.12460 | 104.11785 | 126 ft | 0 kts | 312° |
| 2026-05-07 11:49 | 1.12459 | 104.11787 | 126 ft | 1 kts | 312° |
| 2026-05-07 11:50 | 1.12449 | 104.11798 | 126 ft | 2 kts | 311° |
| 2026-05-07 11:50 | 1.12439 | 104.11809 | 126 ft | 2 kts | 312° |
| 2026-05-07 11:50 | 1.12430 | 104.11819 | 126 ft | 2 kts | 312° |
| 2026-05-07 11:50 | 1.12423 | 104.11832 | 126 ft | 2 kts | 277° |
| 2026-05-07 11:51 | 1.12424 | 104.11847 | 126 ft | 2 kts | 250° |
| 2026-05-07 11:51 | 1.12431 | 104.11858 | 126 ft | 0 kts | 224° |
| 2026-05-07 11:51 | 1.12441 | 104.11866 | 126 ft | 2 kts | 218° |
| 2026-05-07 11:51 | 1.12447 | 104.11871 | 126 ft | 0 kts | 222° |
| 2026-05-07 11:53 | 1.12446 | 104.11870 | 126 ft | 0 kts | 222° |
| 2026-05-07 11:54 | 1.12429 | 104.11855 | 126 ft | 5 kts | 221° |
| 2026-05-07 11:54 | 1.12384 | 104.11817 | 126 ft | 10 kts | 212° |
| 2026-05-07 11:54 | 1.12319 | 104.11827 | 127 ft | 9 kts | 166° |
| 2026-05-07 11:54 | 1.12248 | 104.11794 | 126 ft | 14 kts | 222° |
| 2026-05-07 11:55 | 1.12167 | 104.11722 | 127 ft | 16 kts | 223° |
| 2026-05-07 11:55 | 1.12078 | 104.11644 | 127 ft | 16 kts | 220° |
| 2026-05-07 11:55 | 1.11991 | 104.11568 | 127 ft | 15 kts | 223° |
| 2026-05-07 11:55 | 1.11901 | 104.11488 | 127 ft | 18 kts | 221° |
| 2026-05-07 11:56 | 1.11808 | 104.11406 | 127 ft | 17 kts | 221° |
| 2026-05-07 11:56 | 1.11719 | 104.11329 | 127 ft | 16 kts | 221° |
| 2026-05-07 11:56 | 1.11636 | 104.11255 | 127 ft | 15 kts | 221° |
| 2026-05-07 11:56 | 1.11556 | 104.11186 | 126 ft | 14 kts | 221° |
| 2026-05-07 11:57 | 1.11481 | 104.11118 | 126 ft | 14 kts | 222° |
| 2026-05-07 11:57 | 1.11409 | 104.11053 | 126 ft | 14 kts | 222° |
| 2026-05-07 11:57 | 1.11316 | 104.10972 | 126 ft | 20 kts | 220° |
| 2026-05-07 11:57 | 1.11194 | 104.10864 | 127 ft | 24 kts | 222° |
| 2026-05-07 11:58 | 1.11069 | 104.10753 | 126 ft | 23 kts | 221° |
| 2026-05-07 11:58 | 1.10949 | 104.10648 | 127 ft | 19 kts | 221° |
| 2026-05-07 11:58 | 1.10861 | 104.10583 | 127 ft | 10 kts | 188° |
| 2026-05-07 11:58 | 1.10801 | 104.10620 | 127 ft | 10 kts | 130° |
| 2026-05-07 11:59 | 1.10758 | 104.10671 | 127 ft | 5 kts | 129° |
| 2026-05-07 11:59 | 1.10757 | 104.10691 | 127 ft | 2 kts | 65° |
| 2026-05-07 11:59 | 1.10765 | 104.10704 | 127 ft | 1 kts | 51° |
| 2026-05-07 11:59 | 1.10811 | 104.10746 | 127 ft | 30 kts | 41° |
| 2026-05-07 12:00 | 1.11204 | 104.11094 | 127 ft | 116 kts | 41° |
| 2026-05-07 12:00 | 1.12005 | 104.11797 | 133 ft | 185 kts | 41° |
| 2026-05-07 12:00 | 1.12995 | 104.12654 | 878 ft | 196 kts | 42° |
| 2026-05-07 12:00 | 1.14008 | 104.13539 | 1844 ft | 193 kts | 44° |
| 2026-05-07 12:01 | 1.14989 | 104.14419 | 2647 ft | 195 kts | 44° |
| 2026-05-07 12:01 | 1.16038 | 104.15361 | 3253 ft | 209 kts | 44° |
| 2026-05-07 12:01 | 1.17152 | 104.16344 | 3827 ft | 223 kts | 43° |
| 2026-05-07 12:01 | 1.18381 | 104.17419 | 3986 ft | 241 kts | 43° |
| 2026-05-07 12:02 | 1.19680 | 104.18563 | 4071 ft | 259 kts | 44° |
| 2026-05-07 12:02 | 1.20859 | 104.19957 | 4930 ft | 264 kts | 63° |
| 2026-05-07 12:02 | 1.21345 | 104.21665 | 5892 ft | 264 kts | 86° |
| 2026-05-07 12:02 | 1.21107 | 104.23526 | 5985 ft | 270 kts | 110° |
| 2026-05-07 12:03 | 1.20172 | 104.25131 | 6010 ft | 267 kts | 126° |
| 2026-05-07 12:03 | 1.18989 | 104.26636 | 6078 ft | 290 kts | 131° |
| 2026-05-07 12:03 | 1.18009 | 104.27563 | 6418 ft | 302 kts | 143° |
| 2026-05-07 12:04 | 1.16709 | 104.28262 | 6871 ft | 313 kts | 161° |
| 2026-05-07 12:04 | 1.14549 | 104.28430 | 7658 ft | 320 kts | 187° |
| 2026-05-07 12:04 | 1.12433 | 104.27641 | 7914 ft | 329 kts | 215° |
| 2026-05-07 12:04 | 1.10702 | 104.26167 | 8840 ft | 331 kts | 223° |
| 2026-05-07 12:05 | 1.09057 | 104.24551 | 9631 ft | 337 kts | 225° |
| 2026-05-07 12:05 | 1.07384 | 104.22898 | 10454 ft | 342 kts | 224° |
| 2026-05-07 12:05 | 1.05657 | 104.21249 | 11290 ft | 345 kts | 223° |
| 2026-05-07 12:05 | 1.03895 | 104.19616 | 12065 ft | 350 kts | 222° |
| 2026-05-07 12:06 | 1.02074 | 104.17961 | 12832 ft | 355 kts | 221° |
| 2026-05-07 12:06 | 1.00244 | 104.16316 | 13543 ft | 360 kts | 221° |
| 2026-05-07 12:06 | 0.98365 | 104.14634 | 14255 ft | 364 kts | 221° |
| 2026-05-07 12:06 | 0.96488 | 104.12933 | 14941 ft | 369 kts | 223° |
| 2026-05-07 12:07 | 0.94727 | 104.11023 | 15586 ft | 374 kts | 232° |
| 2026-05-07 12:07 | 0.93329 | 104.08865 | 16256 ft | 378 kts | 240° |
| 2026-05-07 12:07 | 0.92098 | 104.06494 | 16853 ft | 383 kts | 244° |
| 2026-05-07 12:07 | 0.90980 | 104.04107 | 17472 ft | 387 kts | 245° |
| 2026-05-07 12:08 | 0.89859 | 104.01635 | 18089 ft | 391 kts | 246° |
| 2026-05-07 12:08 | 0.88742 | 103.99180 | 18731 ft | 393 kts | 245° |
| 2026-05-07 12:08 | 0.87584 | 103.96671 | 19337 ft | 396 kts | 244° |
| 2026-05-07 12:08 | 0.86430 | 103.94209 | 19954 ft | 398 kts | 244° |
| 2026-05-07 12:09 | 0.85237 | 103.91690 | 20501 ft | 402 kts | 244° |
| 2026-05-07 12:09 | 0.84032 | 103.89159 | 21079 ft | 404 kts | 244° |
| 2026-05-07 12:09 | 0.82805 | 103.86617 | 21617 ft | 407 kts | 243° |
| 2026-05-07 12:09 | 0.81457 | 103.84125 | 22128 ft | 409 kts | 238° |
| 2026-05-07 12:10 | 0.79881 | 103.81753 | 22661 ft | 411 kts | 233° |
| 2026-05-07 12:10 | 0.78172 | 103.79468 | 23127 ft | 415 kts | 231° |
| 2026-05-07 12:10 | 0.76393 | 103.77212 | 23585 ft | 419 kts | 230° |
| 2026-05-07 12:10 | 0.74580 | 103.74912 | 24089 ft | 422 kts | 232° |
| 2026-05-07 12:11 | 0.72996 | 103.72430 | 24552 ft | 426 kts | 242° |
| 2026-05-07 12:11 | 0.71840 | 103.69695 | 24990 ft | 431 kts | 252° |
| 2026-05-07 12:11 | 0.71183 | 103.66808 | 25624 ft | 429 kts | 262° |
| 2026-05-07 12:11 | 0.70985 | 103.63840 | 26261 ft | 427 kts | 269° |
| 2026-05-07 12:12 | 0.71041 | 103.60895 | 26827 ft | 426 kts | 272° |
| 2026-05-07 12:12 | 0.71169 | 103.57925 | 27404 ft | 425 kts | 272° |
| 2026-05-07 12:12 | 0.71288 | 103.54990 | 27957 ft | 423 kts | 272° |
| 2026-05-07 12:12 | 0.71382 | 103.52073 | 28493 ft | 422 kts | 271° |
| 2026-05-07 12:13 | 0.71442 | 103.49165 | 29077 ft | 420 kts | 270° |
| 2026-05-07 12:13 | 0.71476 | 103.46255 | 29600 ft | 418 kts | 270° |
| 2026-05-07 12:13 | 0.71486 | 103.43337 | 29816 ft | 423 kts | 270° |
| 2026-05-07 12:14 | 0.71462 | 103.37508 | 29822 ft | 416 kts | 269° |
| 2026-05-07 12:14 | 0.71405 | 103.31718 | 29824 ft | 417 kts | 269° |
| 2026-05-07 12:15 | 0.71334 | 103.25942 | 29822 ft | 417 kts | 269° |
| 2026-05-07 12:15 | 0.71258 | 103.20134 | 29824 ft | 416 kts | 269° |
| 2026-05-07 12:16 | 0.71179 | 103.14389 | 29823 ft | 416 kts | 269° |
| 2026-05-07 12:16 | 0.71100 | 103.08615 | 29823 ft | 417 kts | 269° |
| 2026-05-07 12:17 | 0.71020 | 103.02815 | 29824 ft | 418 kts | 269° |
| 2026-05-07 12:17 | 0.70941 | 102.97030 | 29823 ft | 417 kts | 269° |
| 2026-05-07 12:18 | 0.70852 | 102.91234 | 29822 ft | 417 kts | 268° |
| 2026-05-07 12:18 | 0.70317 | 102.85490 | 29822 ft | 416 kts | 259° |
| 2026-05-07 12:19 | 0.68990 | 102.79873 | 29823 ft | 417 kts | 254° |
| 2026-05-07 12:19 | 0.67428 | 102.74284 | 29822 ft | 417 kts | 253° |
| 2026-05-07 12:20 | 0.65858 | 102.68708 | 29822 ft | 417 kts | 253° |
| 2026-05-07 12:20 | 0.64325 | 102.63168 | 29817 ft | 416 kts | 254° |
| 2026-05-07 12:21 | 0.62803 | 102.57604 | 29815 ft | 416 kts | 254° |
| 2026-05-07 12:21 | 0.61284 | 102.52020 | 29816 ft | 416 kts | 254° |
| 2026-05-07 12:22 | 0.59770 | 102.46447 | 29818 ft | 416 kts | 254° |
| 2026-05-07 12:22 | 0.58260 | 102.40887 | 29819 ft | 415 kts | 253° |
| 2026-05-07 12:23 | 0.56440 | 102.35416 | 29822 ft | 415 kts | 245° |
| 2026-05-07 12:23 | 0.53616 | 102.30421 | 29826 ft | 413 kts | 236° |
| 2026-05-07 12:24 | 0.50369 | 102.25677 | 29822 ft | 413 kts | 234° |
| 2026-05-07 12:24 | 0.47068 | 102.20961 | 29823 ft | 413 kts | 234° |
| 2026-05-07 12:25 | 0.43799 | 102.16239 | 29821 ft | 413 kts | 234° |
| 2026-05-07 12:25 | 0.40572 | 102.11530 | 29822 ft | 414 kts | 234° |
| 2026-05-07 12:26 | 0.37309 | 102.06749 | 29825 ft | 424 kts | 234° |
| 2026-05-07 12:26 | 0.33917 | 102.01774 | 29824 ft | 443 kts | 235° |
| 2026-05-07 12:27 | 0.30369 | 101.96569 | 29824 ft | 461 kts | 235° |
| 2026-05-07 12:27 | 0.26692 | 101.91170 | 29823 ft | 476 kts | 235° |
| 2026-05-07 12:28 | 0.22969 | 101.85702 | 29824 ft | 474 kts | 235° |
| 2026-05-07 12:28 | 0.19274 | 101.80273 | 29824 ft | 474 kts | 235° |
| 2026-05-07 12:29 | 0.15582 | 101.74850 | 29826 ft | 474 kts | 235° |
| 2026-05-07 12:29 | 0.11879 | 101.69411 | 29827 ft | 473 kts | 235° |
| 2026-05-07 12:30 | 0.08156 | 101.63942 | 29828 ft | 474 kts | 235° |
| 2026-05-07 12:30 | 0.04482 | 101.58546 | 29827 ft | 472 kts | 235° |
| 2026-05-07 12:31 | 0.00763 | 101.53083 | 29829 ft | 472 kts | 235° |
| 2026-05-07 12:31 | -0.02920 | 101.47674 | 29830 ft | 471 kts | 235° |
| 2026-05-07 12:31 | -0.04727 | 101.45018 | 29766 ft | 457 kts | 235° |
| 2026-05-07 12:32 | -0.06497 | 101.42434 | 29516 ft | 446 kts | 234° |
| 2026-05-07 12:32 | -0.08257 | 101.39926 | 29264 ft | 436 kts | 234° |
| 2026-05-07 12:32 | -0.10008 | 101.37472 | 29015 ft | 431 kts | 233° |
| 2026-05-07 12:32 | -0.11773 | 101.35014 | 28767 ft | 433 kts | 233° |
| 2026-05-07 12:33 | -0.15276 | 101.30147 | 28276 ft | 432 kts | 233° |
| 2026-05-07 12:33 | -0.17020 | 101.27720 | 28031 ft | 430 kts | 233° |
| 2026-05-07 12:33 | -0.18772 | 101.25275 | 27782 ft | 429 kts | 233° |
| 2026-05-07 12:34 | -0.20499 | 101.22865 | 27540 ft | 429 kts | 233° |
| 2026-05-07 12:34 | -0.22235 | 101.20436 | 27295 ft | 427 kts | 233° |
| 2026-05-07 12:34 | -0.23947 | 101.18040 | 27051 ft | 425 kts | 233° |
| 2026-05-07 12:34 | -0.25665 | 101.15633 | 26806 ft | 424 kts | 233° |
| 2026-05-07 12:35 | -0.27374 | 101.13239 | 26561 ft | 423 kts | 234° |
| 2026-05-07 12:35 | -0.29078 | 101.10852 | 26270 ft | 418 kts | 233° |
| 2026-05-07 12:35 | -0.30754 | 101.08502 | 25842 ft | 414 kts | 233° |
| 2026-05-07 12:35 | -0.32408 | 101.06184 | 25337 ft | 411 kts | 233° |
| 2026-05-07 12:36 | -0.34064 | 101.03863 | 24803 ft | 410 kts | 233° |
| 2026-05-07 12:36 | -0.35696 | 101.01575 | 24262 ft | 408 kts | 233° |
| 2026-05-07 12:36 | -0.37362 | 100.99240 | 23715 ft | 407 kts | 233° |
| 2026-05-07 12:36 | -0.38987 | 100.96965 | 23185 ft | 406 kts | 233° |
| 2026-05-07 12:37 | -0.40615 | 100.94684 | 22647 ft | 405 kts | 233° |
| 2026-05-07 12:37 | -0.42253 | 100.92390 | 22096 ft | 404 kts | 233° |
| 2026-05-07 12:37 | -0.43878 | 100.90113 | 21564 ft | 404 kts | 233° |
| 2026-05-07 12:37 | -0.45509 | 100.87827 | 21016 ft | 403 kts | 233° |
| 2026-05-07 12:38 | -0.47137 | 100.85545 | 20457 ft | 403 kts | 233° |
| 2026-05-07 12:38 | -0.48753 | 100.83280 | 19899 ft | 403 kts | 234° |
| 2026-05-07 12:38 | -0.50386 | 100.80992 | 19322 ft | 402 kts | 234° |
| 2026-05-07 12:38 | -0.52008 | 100.78718 | 18771 ft | 401 kts | 234° |
| 2026-05-07 12:39 | -0.53597 | 100.76488 | 18210 ft | 400 kts | 234° |
| 2026-05-07 12:39 | -0.55215 | 100.74213 | 17646 ft | 399 kts | 234° |
| 2026-05-07 12:39 | -0.56824 | 100.71949 | 17100 ft | 397 kts | 234° |
| 2026-05-07 12:39 | -0.58419 | 100.69740 | 16556 ft | 395 kts | 232° |
| 2026-05-07 12:40 | -0.60181 | 100.67661 | 16059 ft | 390 kts | 223° |
| 2026-05-07 12:40 | -0.62301 | 100.66042 | 15939 ft | 373 kts | 210° |
| 2026-05-07 12:40 | -0.64543 | 100.64816 | 15950 ft | 359 kts | 205° |
| 2026-05-07 12:40 | -0.66805 | 100.63718 | 15959 ft | 362 kts | 204° |
| 2026-05-07 12:41 | -0.69078 | 100.62647 | 15959 ft | 363 kts | 204° |
| 2026-05-07 12:41 | -0.71395 | 100.61543 | 15738 ft | 363 kts | 204° |
| 2026-05-07 12:41 | -0.73629 | 100.60458 | 15413 ft | 358 kts | 205° |
| 2026-05-07 12:41 | -0.75854 | 100.59364 | 14963 ft | 356 kts | 205° |
| 2026-05-07 12:42 | -0.78098 | 100.58250 | 14458 ft | 356 kts | 205° |
| 2026-05-07 12:42 | -0.80294 | 100.57151 | 14049 ft | 353 kts | 205° |
| 2026-05-07 12:42 | -0.82487 | 100.56046 | 13999 ft | 345 kts | 205° |
| 2026-05-07 12:42 | -0.84622 | 100.54964 | 13999 ft | 349 kts | 205° |
| 2026-05-07 12:43 | -0.86825 | 100.53847 | 13988 ft | 350 kts | 206° |
| 2026-05-07 12:43 | -0.88972 | 100.52758 | 14000 ft | 349 kts | 206° |
| 2026-05-07 12:43 | -0.91162 | 100.51646 | 13995 ft | 349 kts | 205° |
| 2026-05-07 12:43 | -0.93335 | 100.50544 | 13992 ft | 350 kts | 205° |
| 2026-05-07 12:44 | -0.95497 | 100.49449 | 13984 ft | 350 kts | 205° |
| 2026-05-07 12:44 | -0.97700 | 100.48335 | 13873 ft | 351 kts | 205° |
| 2026-05-07 12:44 | -0.99881 | 100.47234 | 13634 ft | 348 kts | 205° |
| 2026-05-07 12:44 | -1.02011 | 100.46162 | 13505 ft | 335 kts | 205° |
| 2026-05-07 12:45 | -1.04073 | 100.45128 | 13097 ft | 334 kts | 205° |
| 2026-05-07 12:45 | -1.06180 | 100.44075 | 12469 ft | 339 kts | 205° |
| 2026-05-07 12:45 | -1.08289 | 100.43014 | 11844 ft | 343 kts | 207° |
| 2026-05-07 12:45 | -1.10299 | 100.41730 | 11216 ft | 347 kts | 219° |
| 2026-05-07 12:46 | -1.11877 | 100.39896 | 10590 ft | 349 kts | 241° |
| 2026-05-07 12:46 | -1.12782 | 100.37676 | 9989 ft | 351 kts | 253° |
| 2026-05-07 12:46 | -1.13410 | 100.35329 | 9365 ft | 353 kts | 256° |
| 2026-05-07 12:46 | -1.13980 | 100.32940 | 8736 ft | 354 kts | 256° |
| 2026-05-07 12:47 | -1.14426 | 100.30545 | 8111 ft | 354 kts | 265° |
| 2026-05-07 12:47 | -1.14370 | 100.28089 | 7483 ft | 353 kts | 278° |
| 2026-05-07 12:47 | -1.13601 | 100.25816 | 6957 ft | 340 kts | 302° |
| 2026-05-07 12:47 | -1.12022 | 100.24157 | 6563 ft | 321 kts | 327° |
| 2026-05-07 12:48 | -1.10055 | 100.23269 | 6180 ft | 304 kts | 345° |
| 2026-05-07 12:48 | -1.08030 | 100.22759 | 5800 ft | 291 kts | 346° |
| 2026-05-07 12:48 | -1.06117 | 100.22256 | 5432 ft | 280 kts | 345° |
| 2026-05-07 12:48 | -1.04249 | 100.21738 | 5108 ft | 274 kts | 345° |
| 2026-05-07 12:49 | -1.02436 | 100.21230 | 4966 ft | 264 kts | 346° |
| 2026-05-07 12:49 | -1.00634 | 100.21091 | 4668 ft | 260 kts | 10° |
| 2026-05-07 12:49 | -0.98974 | 100.21742 | 4484 ft | 250 kts | 41° |
| 2026-05-07 12:49 | -0.98057 | 100.23099 | 4396 ft | 235 kts | 77° |
| 2026-05-07 12:50 | -0.98143 | 100.24677 | 4352 ft | 222 kts | 107° |
| 2026-05-07 12:50 | -0.98641 | 100.26123 | 4386 ft | 222 kts | 108° |
| 2026-05-07 12:50 | -0.99059 | 100.27565 | 4379 ft | 206 kts | 104° |
| 2026-05-07 12:50 | -0.99374 | 100.28896 | 4373 ft | 189 kts | 104° |
| 2026-05-07 12:51 | -0.99701 | 100.30122 | 4369 ft | 181 kts | 107° |
| 2026-05-07 12:51 | -1.00054 | 100.31344 | 4379 ft | 183 kts | 103° |
| 2026-05-07 12:51 | -1.00211 | 100.32609 | 4382 ft | 183 kts | 87° |
| 2026-05-07 12:51 | -0.99911 | 100.33823 | 4385 ft | 182 kts | 61° |
| 2026-05-07 12:52 | -0.99201 | 100.34875 | 4279 ft | 184 kts | 52° |
| 2026-05-07 12:52 | -0.98306 | 100.35793 | 4105 ft | 184 kts | 35° |
| 2026-05-07 12:52 | -0.97102 | 100.36199 | 3841 ft | 187 kts | 357° |
| 2026-05-07 12:52 | -0.95832 | 100.35867 | 3459 ft | 192 kts | 337° |
| 2026-05-07 12:53 | -0.94605 | 100.35342 | 3173 ft | 192 kts | 336° |
| 2026-05-07 12:53 | -0.93376 | 100.34803 | 2916 ft | 191 kts | 336° |
| 2026-05-07 12:53 | -0.92173 | 100.34255 | 2660 ft | 190 kts | 335° |
| 2026-05-07 12:53 | -0.90966 | 100.33699 | 2402 ft | 187 kts | 335° |
| 2026-05-07 12:54 | -0.89837 | 100.33182 | 2227 ft | 170 kts | 336° |
| 2026-05-07 12:54 | -0.88767 | 100.32697 | 1914 ft | 164 kts | 336° |
| 2026-05-07 12:54 | -0.87755 | 100.32233 | 1720 ft | 157 kts | 336° |
| 2026-05-07 12:54 | -0.86737 | 100.31766 | 1511 ft | 159 kts | 336° |
| 2026-05-07 12:55 | -0.85737 | 100.31308 | 1304 ft | 158 kts | 337° |
| 2026-05-07 12:55 | -0.84736 | 100.30849 | 1094 ft | 157 kts | 336° |
| 2026-05-07 12:55 | -0.83743 | 100.30393 | 889 ft | 156 kts | 336° |
| 2026-05-07 12:55 | -0.82747 | 100.29938 | 682 ft | 157 kts | 336° |
| 2026-05-07 12:56 | -0.81759 | 100.29484 | 479 ft | 156 kts | 336° |
| 2026-05-07 12:56 | -0.80775 | 100.29034 | 278 ft | 156 kts | 337° |
| 2026-05-07 12:56 | -0.79782 | 100.28577 | 68 ft | 156 kts | 337° |
| 2026-05-07 12:56 | -0.78896 | 100.28173 | 45 ft | 106 kts | 336° |
| 2026-05-07 12:57 | -0.78440 | 100.27964 | 53 ft | 56 kts | 335° |
| 2026-05-07 12:57 | -0.78221 | 100.27851 | 57 ft | 13 kts | 333° |
| 2026-05-07 12:57 | -0.78189 | 100.27855 | 58 ft | 3 kts | 76° |
| 2026-05-07 12:57 | -0.78216 | 100.27870 | 57 ft | 8 kts | 162° |
| 2026-05-07 12:58 | -0.78292 | 100.27895 | 56 ft | 14 kts | 158° |
| 2026-05-07 12:58 | -0.78404 | 100.27947 | 54 ft | 19 kts | 155° |
| 2026-05-07 12:58 | -0.78529 | 100.28006 | 52 ft | 14 kts | 156° |
| 2026-05-07 12:58 | -0.78576 | 100.28078 | 51 ft | 13 kts | 77° |
| 2026-05-07 12:59 | -0.78544 | 100.28149 | 52 ft | 9 kts | 64° |
| 2026-05-07 12:59 | -0.78521 | 100.28194 | 52 ft | 5 kts | 64° |
| 2026-05-07 12:59 | -0.78503 | 100.28233 | 52 ft | 6 kts | 65° |
| 2026-05-07 12:59 | -0.78484 | 100.28276 | 51 ft | 7 kts | 72° |
| 2026-05-07 13:00 | -0.78494 | 100.28325 | 50 ft | 7 kts | 136° |
| 2026-05-07 13:00 | -0.78542 | 100.28346 | 50 ft | 7 kts | 155° |
| 2026-05-07 13:00 | -0.78584 | 100.28368 | 50 ft | 4 kts | 129° |
| 2026-05-07 13:00 | -0.78588 | 100.28381 | 50 ft | 2 kts | 95° |
| 2026-05-07 13:01 | -0.78575 | 100.28415 | 50 ft | 8 kts | 64° |
| 2026-05-07 13:01 | -0.78556 | 100.28457 | 50 ft | 4 kts | 66° |
| 2026-05-07 13:01 | -0.78554 | 100.28460 | 50 ft | 0 kts | 65° |